SGH weather

Springfield-Beckley Municipal Airport
Springfield, Ohio, United States

Public forecast

Using degrees Fahrenheit for public forecast. Weather courtesy of forecast.io.

METAR (pilot weather report)

Retrieved 2019/03/19 20:56 UTC (23 minutes ago):

KSGH 192056Z AUTO VRB03KT 10SM CLR 09/M05 A3035 RMK AO2 SLP288 T00891050 56024

TAF (pilot weather forecast)

Closest forecast is Wright-Patterson Air Force Base, 9.6 nm (17.8 km) W. Retrieved 2019/03/19 19:11 UTC (2 hours ago):

TAF KFFO 191900Z 1919/2101 VRB06KT 9999 FEW050 QNH3035INS BECMG 2011/2012 15006KT 9999 FEW040 BKN095 620951 QNH3022INS BECMG 2016/2017 20012G20KT 9999 SCT070 510201 QNH3013INS BECMG 2100/2101 19006KT 9999 SCT040 BKN055 610552 510152 QNH2997INS TX11/2019Z TN01/2009Z